TAF Switzerland - 19 Feb 2018 - 0137 UTC - RocketRoute WX - rrwx.com
LSMA   LFSB 182300Z 1900/1924 34004KT 2500 BR OVC003 TEMPO 1900/1908 0800 BCFG OVC002 PROB40 TEMPO 1900/1907 0300 FZFG VV/// BECMG 1909/1911 6000 NSW SCT008 BKN180 TEMPO 1914/1918 CAVOK TEMPO 1918/1924 BKN025 OVC100 LSZB   LSZC   LSMD   LSME   LSZR   LSGG 182325Z 1900/2006 05005KT 9999 OVC025 TX05/1915Z TNM01/1906Z TNM01/2006Z LSZG   LSGC   LSZL   LSZA   LSMM   LSMP   LSZS   LSGS   LSZH 182325Z 1900/2006 32004KT 9999 FEW010 BKN030 TX01/1914Z TNM01/1906Z TNM03/2006Z TEMPO 1901/1910 BKN010 TEMPO 1914/1921 SCT018 PROB40 1915/1921 CAVOK PROB40 2000/2006 4000 BR BKN010

RocketRoute WX - rrwx.com weather for pilots